createdAt,value
2023-02-21T00:01:59.939Z,59.50
2023-02-21T00:04:45.467Z,58.77
2023-02-21T00:07:30.945Z,58.28
2023-02-21T00:10:16.680Z,58.30
2023-02-21T00:13:02.000Z,58.06
2023-02-21T00:15:47.449Z,57.79
2023-02-21T00:18:32.996Z,57.42
2023-02-21T00:21:18.615Z,57.64
2023-02-21T00:24:04.564Z,57.89
2023-02-21T00:26:50.178Z,58.10
2023-02-21T00:29:35.634Z,58.57
2023-02-21T00:32:21.228Z,57.90
2023-02-21T00:35:06.906Z,58.40
2023-02-21T00:37:52.422Z,58.50
2023-02-21T00:40:37.844Z,57.75
2023-02-21T00:43:23.425Z,58.34
2023-02-21T00:46:09.120Z,58.24
2023-02-21T00:48:54.684Z,58.52
2023-02-21T00:51:40.045Z,58.32
2023-02-21T00:54:25.660Z,58.39
2023-02-21T00:57:11.053Z,58.29
2023-02-21T00:59:56.709Z,58.13
2023-02-21T01:02:42.463Z,58.12
2023-02-21T01:05:28.243Z,57.80
2023-02-21T01:08:13.672Z,57.60
2023-02-21T01:10:59.131Z,56.96
2023-02-21T01:13:44.833Z,56.73
2023-02-21T01:16:30.458Z,57.13
2023-02-21T01:19:16.091Z,56.64
2023-02-21T01:22:01.623Z,56.40
2023-02-21T01:24:47.079Z,56.61
2023-02-21T01:27:32.692Z,56.35
2023-02-21T01:30:18.237Z,56.32
2023-02-21T01:33:03.658Z,56.48
2023-02-21T01:35:49.155Z,56.68
2023-02-21T01:38:34.463Z,56.01
2023-02-21T01:41:20.013Z,56.41
2023-02-21T01:44:23.407Z,56.32
2023-02-21T01:47:08.849Z,56.04
2023-02-21T01:49:58.424Z,55.84
2023-02-21T01:52:44.524Z,55.88
2023-02-21T01:55:30.676Z,55.37
2023-02-21T01:58:35.129Z,55.43
2023-02-21T02:04:02.724Z,55.19
2023-02-21T02:06:48.198Z,55.11
2023-02-21T02:09:38.508Z,55.13
2023-02-21T02:12:23.521Z,54.97
2023-02-21T02:15:16.795Z,54.86
2023-02-21T02:17:47.724Z,55.14
2023-02-21T02:20:38.570Z,55.06
2023-02-21T02:23:27.551Z,55.04
2023-02-21T02:26:19.701Z,54.77
2023-02-21T02:29:20.632Z,54.70
2023-02-21T02:32:12.353Z,54.63
2023-02-21T02:35:00.731Z,55.02
2023-02-21T02:37:40.911Z,54.69
2023-02-21T02:40:19.699Z,55.06
2023-02-21T02:43:03.772Z,54.85
2023-02-21T02:45:38.071Z,54.98
2023-02-21T02:48:21.488Z,54.95
2023-02-21T02:50:51.123Z,55.07
2023-02-21T02:53:22.149Z,55.33
2023-02-21T02:56:03.832Z,54.84
2023-02-21T02:58:45.777Z,54.59
2023-02-21T03:01:34.269Z,54.59
2023-02-21T03:04:24.002Z,54.64
2023-02-21T03:06:56.912Z,54.55
2023-02-21T03:09:31.063Z,54.33
2023-02-21T03:12:30.821Z,54.57
2023-02-21T03:15:39.838Z,54.70
2023-02-21T03:18:14.690Z,54.94
2023-02-21T03:20:43.606Z,54.77
2023-02-21T03:23:15.048Z,55.02
2023-02-21T03:25:45.786Z,54.91
2023-02-21T03:28:13.583Z,55.09
2023-02-21T03:30:44.194Z,54.99
2023-02-21T03:33:11.513Z,54.92
2023-02-21T03:35:38.790Z,55.20
2023-02-21T03:38:06.072Z,54.87
2023-02-21T03:40:34.449Z,54.71
2023-02-21T03:43:03.292Z,55.19
2023-02-21T03:45:30.490Z,55.01
2023-02-21T03:47:57.475Z,54.86
2023-02-21T03:50:24.369Z,54.91
2023-02-21T03:52:51.519Z,55.10
2023-02-21T03:55:19.245Z,54.96
2023-02-21T03:57:46.614Z,54.80
2023-02-21T04:00:15.010Z,54.64
2023-02-21T04:02:42.161Z,54.62
2023-02-21T04:05:09.286Z,54.39
2023-02-21T04:07:36.296Z,54.65
2023-02-21T04:10:03.793Z,54.36
2023-02-21T04:12:30.793Z,54.33
2023-02-21T04:14:58.774Z,53.88
2023-02-21T04:17:26.278Z,54.03
2023-02-21T04:19:53.228Z,54.00
2023-02-21T04:22:22.199Z,53.81
2023-02-21T04:24:49.369Z,53.82
2023-02-21T04:27:16.897Z,53.72
2023-02-21T04:29:45.327Z,53.40
2023-02-21T04:32:12.897Z,54.04
2023-02-21T04:34:40.043Z,53.76
2023-02-21T04:37:06.998Z,54.00
2023-02-21T04:39:33.860Z,53.77
2023-02-21T04:42:00.900Z,54.04
2023-02-21T04:44:27.731Z,54.30
2023-02-21T04:46:54.770Z,54.34
2023-02-21T04:49:21.690Z,54.40
2023-02-21T04:51:48.623Z,53.93
2023-02-21T04:54:15.562Z,54.24
2023-02-21T04:56:42.432Z,54.65
2023-02-21T04:59:09.517Z,55.04
2023-02-21T05:01:36.551Z,55.28
2023-02-21T05:04:04.061Z,55.61
2023-02-21T05:06:32.493Z,56.14
2023-02-21T05:09:00.018Z,55.12
2023-02-21T05:11:28.707Z,55.91
2023-02-21T05:13:55.774Z,56.14
2023-02-21T05:16:22.978Z,57.00
2023-02-21T05:18:49.971Z,57.29
2023-02-21T05:21:18.293Z,56.97
2023-02-21T05:23:56.306Z,57.60
2023-02-21T05:26:36.312Z,58.02
2023-02-21T05:29:04.489Z,57.52
2023-02-21T05:31:31.432Z,57.52
2023-02-21T05:33:59.510Z,57.79
2023-02-21T05:36:26.509Z,58.41
2023-02-21T05:38:55.719Z,58.57
2023-02-21T05:41:23.310Z,58.50
2023-02-21T05:43:50.881Z,58.23
2023-02-21T05:46:20.524Z,58.73
2023-02-21T05:48:47.514Z,57.94
2023-02-21T05:51:16.119Z,57.39
2023-02-21T05:53:43.181Z,57.48
2023-02-21T05:56:10.735Z,58.55
2023-02-21T05:58:37.895Z,57.36
2023-02-21T06:01:06.999Z,56.13
2023-02-21T06:03:34.211Z,56.15
2023-02-21T06:06:02.699Z,55.82
2023-02-21T06:08:29.792Z,56.04
2023-02-21T06:10:57.820Z,55.29
2023-02-21T06:13:24.968Z,53.54
2023-02-21T06:15:52.012Z,50.81
2023-02-21T06:18:19.264Z,46.91
2023-02-21T06:20:46.166Z,44.42
2023-02-21T06:23:13.112Z,41.91
2023-02-21T06:25:42.632Z,41.12
2023-02-21T06:28:09.708Z,38.86
2023-02-21T06:30:36.702Z,37.80
2023-02-21T06:33:04.910Z,36.59
2023-02-21T06:35:32.036Z,35.68
2023-02-21T06:37:58.853Z,35.37
2023-02-21T06:40:25.766Z,33.81
2023-02-21T06:42:55.098Z,34.06
2023-02-21T06:45:21.894Z,34.09
2023-02-21T06:47:48.728Z,36.57
2023-02-21T06:50:15.835Z,36.96
2023-02-21T06:52:43.326Z,36.97
2023-02-21T06:55:10.222Z,37.47
2023-02-21T06:57:37.268Z,34.75
2023-02-21T07:00:06.388Z,32.75
2023-02-21T07:02:34.908Z,31.14
2023-02-21T07:05:01.797Z,31.08
2023-02-21T07:07:28.591Z,29.64
2023-02-21T07:10:14.164Z,28.79
2023-02-21T07:12:41.017Z,27.05
2023-02-21T07:15:08.287Z,25.91
2023-02-21T07:17:35.275Z,25.02
2023-02-21T07:20:02.399Z,24.87
2023-02-21T07:22:29.314Z,24.41
2023-02-21T07:24:57.209Z,24.64
2023-02-21T07:27:24.011Z,23.92
2023-02-21T07:29:52.029Z,24.37
2023-02-21T07:32:19.346Z,25.63
2023-02-21T07:34:47.809Z,24.62
2023-02-21T07:37:15.117Z,25.21
2023-02-21T07:39:42.445Z,26.38
2023-02-21T07:42:09.409Z,26.01
2023-02-21T07:44:36.497Z,26.17
2023-02-21T07:47:03.489Z,26.34
2023-02-21T07:49:30.437Z,26.24
2023-02-21T07:51:57.503Z,25.73
2023-02-21T07:54:24.851Z,25.28
2023-02-21T07:56:52.358Z,25.67
2023-02-21T07:59:19.320Z,26.08
2023-02-21T08:01:47.908Z,26.55
2023-02-21T08:04:15.135Z,27.51
2023-02-21T08:06:42.145Z,27.12
2023-02-21T08:09:09.158Z,26.34
2023-02-21T08:11:36.920Z,26.27
2023-02-21T08:14:05.441Z,26.53
2023-02-21T08:16:34.965Z,26.98
2023-02-21T08:19:02.395Z,26.41
2023-02-21T08:21:29.322Z,27.26
2023-02-21T08:23:56.453Z,26.48
2023-02-21T08:26:24.981Z,26.29
2023-02-21T08:28:51.916Z,26.30
2023-02-21T08:31:19.256Z,25.93
2023-02-21T08:33:46.495Z,26.69
2023-02-21T08:36:15.386Z,25.61
2023-02-21T08:38:42.294Z,26.27
2023-02-21T08:41:10.618Z,26.54
2023-02-21T08:43:37.745Z,26.00
2023-02-21T08:46:05.061Z,27.22
2023-02-21T08:48:31.923Z,26.82
2023-02-21T08:50:58.763Z,27.28
2023-02-21T08:53:26.101Z,26.63
2023-02-21T08:55:52.913Z,26.61
2023-02-21T08:58:19.825Z,27.35
2023-02-21T09:00:46.736Z,26.73
2023-02-21T09:03:13.677Z,28.09
2023-02-21T09:05:40.834Z,28.86
2023-02-21T09:08:10.587Z,27.49
2023-02-21T09:10:37.629Z,26.92
2023-02-21T09:13:06.575Z,27.62
2023-02-21T09:15:33.653Z,27.51
2023-02-21T09:18:01.418Z,27.34
2023-02-21T09:20:28.401Z,26.08
2023-02-21T09:22:57.121Z,27.00
2023-02-21T09:25:25.708Z,26.31
2023-02-21T09:27:55.747Z,26.73
2023-02-21T09:30:27.147Z,26.27
2023-02-21T09:32:54.956Z,26.26
2023-02-21T09:35:22.511Z,26.51
2023-02-21T09:37:49.434Z,26.19
2023-02-21T09:40:34.293Z,25.37
2023-02-21T09:43:03.629Z,25.52
2023-02-21T09:45:36.462Z,25.88
2023-02-21T09:48:14.405Z,27.26
2023-02-21T09:50:49.293Z,25.44
2023-02-21T09:53:24.926Z,25.02
2023-02-21T09:55:55.189Z,24.98
2023-02-21T09:58:22.315Z,24.88
2023-02-21T10:00:50.523Z,24.30
2023-02-21T10:03:38.361Z,24.32
2023-02-21T10:06:17.580Z,25.77
2023-02-21T10:09:28.556Z,24.84
2023-02-21T10:12:18.485Z,24.97
2023-02-21T10:15:04.507Z,25.22
2023-02-21T10:18:03.754Z,26.28
2023-02-21T10:20:37.478Z,24.97
2023-02-21T10:23:12.209Z,24.66
2023-02-21T10:25:43.129Z,25.62
2023-02-21T10:28:18.346Z,24.53
2023-02-21T10:30:47.391Z,24.10
2023-02-21T10:33:14.488Z,24.05
2023-02-21T10:35:42.731Z,24.85
2023-02-21T10:38:17.056Z,24.32
2023-02-21T10:41:04.347Z,24.70
2023-02-21T10:43:36.508Z,24.80
2023-02-21T10:46:18.468Z,23.84
2023-02-21T10:48:50.626Z,23.16
2023-02-21T10:51:33.460Z,25.20
2023-02-21T10:54:22.199Z,24.26
2023-02-21T10:56:52.879Z,24.19
2023-02-21T10:59:32.806Z,23.60
2023-02-21T11:02:05.283Z,23.35
2023-02-21T11:04:35.993Z,24.59
2023-02-21T11:07:27.348Z,24.05
2023-02-21T11:09:56.036Z,25.72
2023-02-21T11:12:26.052Z,24.50
2023-02-21T11:15:29.008Z,24.30
2023-02-21T11:18:17.458Z,24.30
2023-02-21T11:20:45.918Z,25.67
2023-02-21T11:23:31.553Z,24.61
2023-02-21T11:26:07.569Z,24.97
2023-02-21T11:28:47.637Z,24.31
2023-02-21T11:31:28.820Z,26.01
2023-02-21T11:33:59.856Z,24.90
2023-02-21T11:36:32.976Z,26.58
2023-02-21T11:39:41.643Z,25.81
2023-02-21T11:42:29.045Z,26.83
2023-02-21T11:45:22.097Z,25.95
2023-02-21T11:48:01.681Z,26.52
2023-02-21T11:50:40.980Z,25.75
2023-02-21T11:53:31.400Z,27.93
2023-02-21T11:55:58.412Z,26.06
2023-02-21T11:58:42.711Z,26.17
2023-02-21T12:01:22.841Z,26.45
2023-02-21T12:04:10.859Z,26.70
2023-02-21T12:06:54.809Z,26.26
2023-02-21T12:09:43.456Z,26.03
2023-02-21T12:13:00.316Z,25.67
2023-02-21T12:15:43.532Z,26.17
2023-02-21T12:18:35.237Z,25.71
2023-02-21T12:21:15.100Z,25.76
2023-02-21T12:23:59.972Z,25.90
2023-02-21T12:26:57.081Z,26.31
2023-02-21T12:29:35.996Z,25.86
2023-02-21T12:32:06.162Z,25.65
2023-02-21T12:34:42.048Z,25.94
2023-02-21T12:37:34.542Z,25.81
2023-02-21T12:40:26.742Z,25.72
2023-02-21T12:43:09.723Z,26.43
2023-02-21T12:45:51.503Z,25.91
2023-02-21T12:48:41.597Z,25.77
2023-02-21T12:51:17.196Z,25.88
2023-02-21T12:53:55.399Z,26.12
2023-02-21T12:56:33.247Z,26.52
2023-02-21T12:59:08.006Z,27.31
2023-02-21T13:01:44.780Z,26.29
2023-02-21T13:04:24.310Z,26.52
2023-02-21T13:07:01.553Z,27.79
2023-02-21T13:09:37.312Z,26.36
2023-02-21T13:12:13.976Z,26.42
2023-02-21T13:14:56.506Z,27.16
2023-02-21T13:17:26.027Z,27.34
2023-02-21T13:20:19.253Z,26.55
2023-02-21T13:23:08.746Z,26.58
2023-02-21T13:25:41.689Z,26.66
2023-02-21T13:28:30.256Z,26.49
2023-02-21T13:31:03.846Z,27.09
2023-02-21T13:33:44.555Z,27.09
2023-02-21T13:36:20.738Z,27.49
2023-02-21T13:39:13.248Z,27.32
2023-02-21T13:41:45.365Z,28.00
2023-02-21T13:44:30.726Z,26.99
2023-02-21T13:47:22.258Z,27.77
2023-02-21T13:49:56.714Z,28.28
2023-02-21T13:52:35.519Z,27.86
2023-02-21T13:55:21.714Z,28.53
2023-02-21T13:58:12.151Z,28.72
2023-02-21T14:00:39.131Z,28.69
2023-02-21T14:03:14.188Z,28.44
2023-02-21T14:05:47.729Z,29.47
2023-02-21T14:08:20.430Z,28.64
2023-02-21T14:10:56.445Z,28.83
2023-02-21T14:13:37.108Z,29.04
2023-02-21T14:16:11.197Z,28.92
2023-02-21T14:18:50.332Z,29.01
2023-02-21T14:21:27.192Z,29.16
2023-02-21T14:24:01.721Z,29.86
2023-02-21T14:26:45.060Z,29.42
2023-02-21T14:29:46.477Z,29.58
2023-02-21T14:32:13.486Z,29.27
2023-02-21T14:34:54.568Z,29.65
2023-02-21T14:37:45.300Z,29.68
2023-02-21T14:40:15.216Z,29.41
2023-02-21T14:43:02.235Z,29.68
2023-02-21T14:45:35.012Z,29.72
2023-02-21T14:48:27.160Z,29.96
2023-02-21T14:51:19.660Z,31.07
2023-02-21T14:54:41.338Z,31.41
2023-02-21T14:57:35.158Z,30.71
2023-02-21T15:00:27.205Z,31.24
2023-02-21T15:03:22.008Z,30.63
2023-02-21T15:06:03.426Z,30.88
2023-02-21T15:08:50.701Z,31.14
2023-02-21T15:11:37.791Z,31.89
2023-02-21T15:14:41.813Z,31.86
2023-02-21T15:17:19.682Z,32.30
2023-02-21T15:19:47.848Z,32.82
2023-02-21T15:22:18.688Z,33.13
2023-02-21T15:25:11.525Z,33.31
2023-02-21T15:27:54.016Z,33.98
2023-02-21T15:30:33.671Z,33.92
2023-02-21T15:33:27.058Z,34.50
2023-02-21T15:36:09.373Z,34.72
2023-02-21T15:38:48.338Z,34.71
2023-02-21T15:41:34.517Z,35.06
2023-02-21T15:44:09.414Z,34.96
2023-02-21T15:47:05.709Z,35.25
2023-02-21T15:49:42.101Z,35.19
2023-02-21T15:52:27.684Z,35.59
2023-02-21T15:55:20.816Z,35.77
2023-02-21T15:58:08.096Z,36.05
2023-02-21T16:01:07.249Z,36.56
2023-02-21T16:03:45.888Z,36.39
2023-02-21T16:06:29.304Z,36.77
2023-02-21T16:08:59.267Z,36.60
2023-02-21T16:11:53.787Z,37.10
2023-02-21T16:14:41.868Z,36.99
2023-02-21T16:17:24.368Z,36.94
2023-02-21T16:19:56.427Z,36.85
2023-02-21T16:22:59.261Z,36.95
2023-02-21T16:25:25.389Z,36.84
2023-02-21T16:27:55.871Z,36.51
2023-02-21T16:30:29.530Z,36.41
2023-02-21T16:33:06.555Z,36.41
2023-02-21T16:35:34.527Z,36.85
2023-02-21T16:38:02.197Z,37.02
2023-02-21T16:40:31.702Z,36.72
2023-02-21T16:42:59.274Z,36.66
2023-02-21T16:45:29.244Z,36.81
2023-02-21T16:48:06.971Z,36.82
2023-02-21T16:50:37.202Z,36.80
2023-02-21T16:53:06.085Z,36.67
2023-02-21T16:55:33.193Z,37.01
2023-02-21T16:58:07.589Z,37.16
2023-02-21T17:00:37.047Z,37.13
2023-02-21T17:03:04.447Z,37.01
2023-02-21T17:05:31.423Z,37.17
2023-02-21T17:07:59.004Z,37.53
2023-02-21T17:10:26.489Z,37.52
2023-02-21T17:12:53.430Z,37.66
2023-02-21T17:15:22.540Z,37.73
2023-02-21T17:17:53.408Z,38.06
2023-02-21T17:20:22.619Z,37.74
2023-02-21T17:22:51.235Z,38.41
2023-02-21T17:25:20.136Z,38.36
2023-02-21T17:27:47.623Z,38.49
2023-02-21T17:30:15.897Z,38.48
2023-02-21T17:32:43.841Z,38.80
2023-02-21T17:35:10.827Z,39.78
2023-02-21T17:37:38.431Z,40.25
2023-02-21T17:40:06.743Z,39.68
2023-02-21T17:42:34.658Z,39.35
2023-02-21T17:45:02.451Z,39.42
2023-02-21T17:47:29.811Z,40.11
2023-02-21T17:50:00.795Z,41.35
2023-02-21T17:52:28.906Z,41.64
2023-02-21T17:54:56.129Z,42.93
2023-02-21T17:57:26.932Z,42.01
2023-02-21T17:59:53.893Z,42.90
2023-02-21T18:02:20.932Z,43.18
2023-02-21T18:04:50.064Z,42.83
2023-02-21T18:07:16.976Z,43.29
2023-02-21T18:09:47.354Z,43.43
2023-02-21T18:12:14.301Z,43.68
2023-02-21T18:14:41.341Z,45.05
2023-02-21T18:17:09.516Z,45.02
2023-02-21T18:19:38.183Z,45.42
2023-02-21T18:22:06.509Z,45.65
2023-02-21T18:24:33.493Z,45.43
2023-02-21T18:27:00.587Z,45.89
2023-02-21T18:29:27.636Z,45.44
2023-02-21T18:31:54.813Z,46.70
2023-02-21T18:34:22.471Z,45.61
2023-02-21T18:36:51.370Z,46.91
2023-02-21T18:39:19.467Z,46.82
2023-02-21T18:41:47.032Z,46.26
2023-02-21T18:44:14.556Z,47.35
2023-02-21T18:46:46.162Z,48.36
2023-02-21T18:49:14.766Z,48.39
2023-02-21T18:51:42.714Z,49.27
2023-02-21T18:54:09.591Z,49.31
2023-02-21T18:56:36.767Z,49.65
2023-02-21T18:59:03.645Z,50.26
2023-02-21T19:01:30.579Z,50.74
2023-02-21T19:04:16.063Z,51.35
2023-02-21T19:06:43.303Z,50.54
2023-02-21T19:09:10.762Z,50.79
2023-02-21T19:11:37.932Z,50.90
2023-02-21T19:14:05.848Z,51.60
2023-02-21T19:16:34.290Z,51.94
2023-02-21T19:19:03.966Z,50.68
2023-02-21T19:21:31.355Z,50.67
2023-02-21T19:23:58.605Z,51.23
2023-02-21T19:26:29.652Z,51.69
2023-02-21T19:28:56.980Z,52.46
2023-02-21T19:31:24.452Z,52.15
2023-02-21T19:33:52.012Z,52.48
2023-02-21T19:36:21.725Z,52.68
2023-02-21T19:38:49.167Z,53.03
2023-02-21T19:41:18.928Z,52.99
2023-02-21T19:43:46.387Z,54.34
2023-02-21T19:46:21.963Z,54.35
2023-02-21T19:48:49.284Z,55.23
2023-02-21T19:51:18.682Z,54.95
2023-02-21T19:53:46.297Z,54.75
2023-02-21T19:56:15.054Z,54.33
2023-02-21T19:58:43.910Z,55.34
2023-02-21T20:01:12.628Z,56.12
2023-02-21T20:03:40.961Z,56.20
2023-02-21T20:06:08.864Z,56.09
2023-02-21T20:08:36.090Z,56.46
2023-02-21T20:11:03.007Z,56.86
2023-02-21T20:13:31.622Z,57.47
2023-02-21T20:15:58.828Z,57.61
2023-02-21T20:18:25.815Z,57.13
2023-02-21T20:20:52.719Z,57.29
2023-02-21T20:23:19.723Z,57.74
2023-02-21T20:25:49.567Z,56.88
2023-02-21T20:28:17.570Z,56.78
2023-02-21T20:30:44.595Z,56.31
2023-02-21T20:33:11.646Z,57.55
2023-02-21T20:35:38.799Z,58.60
2023-02-21T20:38:06.581Z,57.72
2023-02-21T20:40:35.291Z,57.89
2023-02-21T20:43:02.727Z,56.31
2023-02-21T20:45:29.810Z,57.93
2023-02-21T20:47:58.045Z,58.33
2023-02-21T20:50:26.183Z,57.00
2023-02-21T20:52:55.027Z,57.71
2023-02-21T20:55:22.694Z,55.90
2023-02-21T20:57:50.896Z,55.77
2023-02-21T21:00:23.795Z,55.00
2023-02-21T21:02:51.875Z,55.01
2023-02-21T21:05:20.764Z,55.67
2023-02-21T21:07:48.179Z,56.80
2023-02-21T21:10:19.276Z,57.24
2023-02-21T21:12:46.344Z,57.71
2023-02-21T21:15:14.628Z,57.89
2023-02-21T21:17:42.383Z,58.23
2023-02-21T21:20:14.547Z,58.75
2023-02-21T21:22:41.929Z,58.99
2023-02-21T21:25:09.906Z,58.75
2023-02-21T21:27:37.872Z,59.30
2023-02-21T21:30:07.550Z,59.36
2023-02-21T21:32:34.834Z,58.61
2023-02-21T21:35:06.954Z,58.01
2023-02-21T21:37:35.921Z,59.28
2023-02-21T21:40:19.225Z,59.51
2023-02-21T21:42:50.221Z,59.41
2023-02-21T21:45:19.830Z,59.55
2023-02-21T21:47:54.953Z,59.81
2023-02-21T21:50:22.635Z,59.66
2023-02-21T21:52:53.534Z,59.09
2023-02-21T21:55:26.711Z,59.26
2023-02-21T21:57:54.553Z,59.97
2023-02-21T22:00:26.574Z,59.36
2023-02-21T22:02:57.709Z,59.36
2023-02-21T22:05:32.911Z,58.93
2023-02-21T22:08:00.256Z,58.05
2023-02-21T22:10:28.194Z,57.18
2023-02-21T22:12:56.832Z,57.68
2023-02-21T22:15:26.113Z,58.22
2023-02-21T22:17:53.311Z,58.29
2023-02-21T22:20:31.380Z,58.22
2023-02-21T22:22:58.948Z,58.21
2023-02-21T22:25:28.232Z,59.55
2023-02-21T22:27:55.522Z,59.37
2023-02-21T22:30:23.245Z,58.97
2023-02-21T22:32:50.551Z,59.16
2023-02-21T22:35:20.141Z,60.23
2023-02-21T22:37:52.902Z,60.34
2023-02-21T22:40:26.424Z,59.86
2023-02-21T22:43:02.162Z,59.60
2023-02-21T22:45:33.334Z,59.86
2023-02-21T22:48:03.523Z,61.00
2023-02-21T22:50:37.116Z,58.55
2023-02-21T22:53:08.383Z,60.27
2023-02-21T22:55:38.281Z,60.49
2023-02-21T22:58:08.228Z,59.61
2023-02-21T23:00:38.279Z,61.18
2023-02-21T23:03:14.339Z,61.53
2023-02-21T23:05:44.050Z,60.71
2023-02-21T23:08:13.281Z,61.10
2023-02-21T23:10:40.715Z,59.99
2023-02-21T23:13:20.644Z,60.66
2023-02-21T23:15:48.308Z,61.34
2023-02-21T23:18:20.794Z,62.49
2023-02-21T23:20:56.594Z,61.71
2023-02-21T23:23:27.339Z,60.80
2023-02-21T23:25:59.237Z,59.76
2023-02-21T23:28:29.068Z,60.53
2023-02-21T23:30:58.220Z,60.69
2023-02-21T23:33:28.126Z,60.78
2023-02-21T23:35:56.870Z,60.58
2023-02-21T23:38:28.462Z,61.55
2023-02-21T23:40:58.281Z,62.23
2023-02-21T23:43:30.606Z,62.12
2023-02-21T23:45:59.254Z,63.35
2023-02-21T23:48:27.019Z,63.32
2023-02-21T23:50:58.312Z,62.92
2023-02-21T23:53:28.523Z,62.17
2023-02-21T23:55:57.862Z,61.35
2023-02-21T23:58:27.327Z,61.56
